sensor_id;sensor_type;location;lat;lon;timestamp;P1;durP1;ratioP1;P2;durP2;ratioP2
13061;SDS011;6597;52.218;9.882;2024-02-16T00:01:11;11.93;;;2.77;;
13061;SDS011;6597;52.218;9.882;2024-02-16T00:03:39;12.10;;;2.63;;
13061;SDS011;6597;52.218;9.882;2024-02-16T00:06:07;13.80;;;2.73;;
13061;SDS011;6597;52.218;9.882;2024-02-16T00:08:34;7.40;;;2.17;;
13061;SDS011;6597;52.218;9.882;2024-02-16T00:11:03;11.93;;;2.83;;
13061;SDS011;6597;52.218;9.882;2024-02-16T00:13:30;6.47;;;2.40;;
13061;SDS011;6597;52.218;9.882;2024-02-16T00:15:57;10.10;;;2.60;;
13061;SDS011;6597;52.218;9.882;2024-02-16T00:18:24;12.27;;;2.57;;
13061;SDS011;6597;52.218;9.882;2024-02-16T00:20:50;13.23;;;2.90;;
13061;SDS011;6597;52.218;9.882;2024-02-16T00:23:18;15.93;;;2.73;;
13061;SDS011;6597;52.218;9.882;2024-02-16T00:25:47;14.27;;;3.30;;
13061;SDS011;6597;52.218;9.882;2024-02-16T00:28:14;9.73;;;2.50;;
13061;SDS011;6597;52.218;9.882;2024-02-16T00:30:40;11.43;;;2.50;;
13061;SDS011;6597;52.218;9.882;2024-02-16T00:33:07;11.87;;;2.23;;
13061;SDS011;6597;52.218;9.882;2024-02-16T00:35:34;13.30;;;2.50;;
13061;SDS011;6597;52.218;9.882;2024-02-16T00:38:00;11.80;;;2.33;;
13061;SDS011;6597;52.218;9.882;2024-02-16T00:40:28;8.27;;;2.23;;
13061;SDS011;6597;52.218;9.882;2024-02-16T00:42:55;12.47;;;2.60;;
13061;SDS011;6597;52.218;9.882;2024-02-16T00:45:21;11.90;;;2.67;;
13061;SDS011;6597;52.218;9.882;2024-02-16T00:47:47;12.60;;;2.70;;
13061;SDS011;6597;52.218;9.882;2024-02-16T00:50:14;10.03;;;2.27;;
13061;SDS011;6597;52.218;9.882;2024-02-16T00:52:40;12.80;;;3.00;;
13061;SDS011;6597;52.218;9.882;2024-02-16T00:55:09;9.63;;;2.20;;
13061;SDS011;6597;52.218;9.882;2024-02-16T00:57:39;10.40;;;2.60;;
13061;SDS011;6597;52.218;9.882;2024-02-16T01:00:06;11.03;;;2.60;;
13061;SDS011;6597;52.218;9.882;2024-02-16T01:02:34;18.40;;;3.20;;
13061;SDS011;6597;52.218;9.882;2024-02-16T01:05:00;11.00;;;2.57;;
13061;SDS011;6597;52.218;9.882;2024-02-16T01:07:28;6.23;;;1.97;;
13061;SDS011;6597;52.218;9.882;2024-02-16T01:09:56;13.17;;;2.53;;
13061;SDS011;6597;52.218;9.882;2024-02-16T01:12:22;13.00;;;2.47;;
13061;SDS011;6597;52.218;9.882;2024-02-16T01:14:50;10.57;;;2.30;;
13061;SDS011;6597;52.218;9.882;2024-02-16T01:17:17;9.40;;;2.40;;
13061;SDS011;6597;52.218;9.882;2024-02-16T01:19:44;10.50;;;2.43;;
13061;SDS011;6597;52.218;9.882;2024-02-16T01:22:12;10.67;;;2.47;;
13061;SDS011;6597;52.218;9.882;2024-02-16T01:24:38;4.77;;;2.00;;
13061;SDS011;6597;52.218;9.882;2024-02-16T01:27:05;10.83;;;2.23;;
13061;SDS011;6597;52.218;9.882;2024-02-16T01:29:31;7.87;;;1.90;;
13061;SDS011;6597;52.218;9.882;2024-02-16T01:31:59;10.90;;;2.43;;
13061;SDS011;6597;52.218;9.882;2024-02-16T01:34:26;13.90;;;2.70;;
13061;SDS011;6597;52.218;9.882;2024-02-16T01:36:55;11.83;;;2.50;;
13061;SDS011;6597;52.218;9.882;2024-02-16T01:39:21;11.83;;;2.33;;
13061;SDS011;6597;52.218;9.882;2024-02-16T01:41:48;13.30;;;2.80;;
13061;SDS011;6597;52.218;9.882;2024-02-16T01:44:14;13.60;;;2.73;;
13061;SDS011;6597;52.218;9.882;2024-02-16T01:46:41;10.53;;;2.53;;
13061;SDS011;6597;52.218;9.882;2024-02-16T01:49:09;10.93;;;2.57;;
13061;SDS011;6597;52.218;9.882;2024-02-16T01:51:39;13.70;;;2.70;;
13061;SDS011;6597;52.218;9.882;2024-02-16T01:54:06;5.27;;;1.93;;
13061;SDS011;6597;52.218;9.882;2024-02-16T01:56:32;13.73;;;2.13;;
13061;SDS011;6597;52.218;9.882;2024-02-16T01:58:59;17.73;;;3.10;;
13061;SDS011;6597;52.218;9.882;2024-02-16T02:01:26;13.77;;;2.73;;
13061;SDS011;6597;52.218;9.882;2024-02-16T02:03:52;20.53;;;4.20;;
13061;SDS011;6597;52.218;9.882;2024-02-16T02:06:20;13.77;;;2.87;;
13061;SDS011;6597;52.218;9.882;2024-02-16T02:08:47;13.53;;;2.80;;
13061;SDS011;6597;52.218;9.882;2024-02-16T02:11:13;10.40;;;2.43;;
13061;SDS011;6597;52.218;9.882;2024-02-16T02:13:40;15.13;;;2.57;;
13061;SDS011;6597;52.218;9.882;2024-02-16T02:16:06;11.60;;;2.53;;
13061;SDS011;6597;52.218;9.882;2024-02-16T02:18:35;13.47;;;2.70;;
13061;SDS011;6597;52.218;9.882;2024-02-16T02:21:02;12.07;;;2.87;;
13061;SDS011;6597;52.218;9.882;2024-02-16T02:23:30;12.47;;;2.47;;
13061;SDS011;6597;52.218;9.882;2024-02-16T02:25:59;9.97;;;2.17;;
13061;SDS011;6597;52.218;9.882;2024-02-16T02:28:26;12.30;;;2.40;;
13061;SDS011;6597;52.218;9.882;2024-02-16T02:30:54;13.30;;;2.57;;
13061;SDS011;6597;52.218;9.882;2024-02-16T02:33:20;6.53;;;2.00;;
13061;SDS011;6597;52.218;9.882;2024-02-16T02:35:47;13.47;;;2.53;;
13061;SDS011;6597;52.218;9.882;2024-02-16T02:38:14;7.40;;;1.90;;
13061;SDS011;6597;52.218;9.882;2024-02-16T02:40:42;10.70;;;2.20;;
13061;SDS011;6597;52.218;9.882;2024-02-16T02:43:08;12.43;;;2.53;;
13061;SDS011;6597;52.218;9.882;2024-02-16T02:45:35;10.23;;;2.33;;
13061;SDS011;6597;52.218;9.882;2024-02-16T02:48:01;5.10;;;1.70;;
13061;SDS011;6597;52.218;9.882;2024-02-16T02:50:28;12.47;;;2.53;;
13061;SDS011;6597;52.218;9.882;2024-02-16T02:52:56;13.93;;;2.53;;
13061;SDS011;6597;52.218;9.882;2024-02-16T02:55:22;12.27;;;2.20;;
13061;SDS011;6597;52.218;9.882;2024-02-16T02:57:50;15.57;;;2.33;;
13061;SDS011;6597;52.218;9.882;2024-02-16T03:00:17;11.20;;;2.40;;
13061;SDS011;6597;52.218;9.882;2024-02-16T03:02:44;6.23;;;1.93;;
13061;SDS011;6597;52.218;9.882;2024-02-16T03:05:11;12.20;;;2.50;;
13061;SDS011;6597;52.218;9.882;2024-02-16T03:07:37;9.90;;;2.10;;
13061;SDS011;6597;52.218;9.882;2024-02-16T03:10:04;9.77;;;2.47;;
13061;SDS011;6597;52.218;9.882;2024-02-16T03:12:34;11.03;;;2.30;;
13061;SDS011;6597;52.218;9.882;2024-02-16T03:15:02;12.03;;;2.40;;
13061;SDS011;6597;52.218;9.882;2024-02-16T03:17:29;10.50;;;2.23;;
13061;SDS011;6597;52.218;9.882;2024-02-16T03:19:55;11.50;;;2.73;;
13061;SDS011;6597;52.218;9.882;2024-02-16T03:22:22;4.00;;;1.70;;
13061;SDS011;6597;52.218;9.882;2024-02-16T03:24:48;9.97;;;2.23;;
13061;SDS011;6597;52.218;9.882;2024-02-16T03:27:15;8.50;;;2.17;;
13061;SDS011;6597;52.218;9.882;2024-02-16T03:29:41;13.53;;;2.43;;
13061;SDS011;6597;52.218;9.882;2024-02-16T03:32:10;10.03;;;2.47;;
13061;SDS011;6597;52.218;9.882;2024-02-16T03:34:37;8.90;;;2.07;;
13061;SDS011;6597;52.218;9.882;2024-02-16T03:37:03;11.57;;;2.40;;
13061;SDS011;6597;52.218;9.882;2024-02-16T03:39:30;9.50;;;2.33;;
13061;SDS011;6597;52.218;9.882;2024-02-16T03:41:57;9.63;;;2.53;;
13061;SDS011;6597;52.218;9.882;2024-02-16T03:44:23;10.27;;;2.10;;
13061;SDS011;6597;52.218;9.882;2024-02-16T03:46:50;7.83;;;2.00;;
13061;SDS011;6597;52.218;9.882;2024-02-16T03:49:18;7.60;;;2.20;;
13061;SDS011;6597;52.218;9.882;2024-02-16T03:51:44;7.97;;;2.00;;
13061;SDS011;6597;52.218;9.882;2024-02-16T03:54:11;10.20;;;2.40;;
13061;SDS011;6597;52.218;9.882;2024-02-16T03:56:37;9.63;;;2.23;;
13061;SDS011;6597;52.218;9.882;2024-02-16T03:59:04;11.13;;;2.33;;
13061;SDS011;6597;52.218;9.882;2024-02-16T04:01:30;15.37;;;2.50;;
13061;SDS011;6597;52.218;9.882;2024-02-16T04:03:57;11.23;;;2.73;;
13061;SDS011;6597;52.218;9.882;2024-02-16T04:06:25;11.63;;;2.23;;
13061;SDS011;6597;52.218;9.882;2024-02-16T04:08:51;10.80;;;2.37;;
13061;SDS011;6597;52.218;9.882;2024-02-16T04:11:18;8.37;;;2.03;;
13061;SDS011;6597;52.218;9.882;2024-02-16T04:13:44;9.17;;;2.10;;
13061;SDS011;6597;52.218;9.882;2024-02-16T04:16:11;10.10;;;2.57;;
13061;SDS011;6597;52.218;9.882;2024-02-16T04:18:37;8.50;;;2.00;;
13061;SDS011;6597;52.218;9.882;2024-02-16T04:21:04;8.77;;;1.90;;
13061;SDS011;6597;52.218;9.882;2024-02-16T04:23:32;3.63;;;1.60;;
13061;SDS011;6597;52.218;9.882;2024-02-16T04:25:59;4.23;;;1.93;;
13061;SDS011;6597;52.218;9.882;2024-02-16T04:28:25;12.87;;;2.33;;
13061;SDS011;6597;52.218;9.882;2024-02-16T04:30:52;11.77;;;2.47;;
13061;SDS011;6597;52.218;9.882;2024-02-16T04:33:18;9.87;;;2.10;;
13061;SDS011;6597;52.218;9.882;2024-02-16T04:35:45;11.17;;;2.50;;
13061;SDS011;6597;52.218;9.882;2024-02-16T04:38:13;10.93;;;2.40;;
13061;SDS011;6597;52.218;9.882;2024-02-16T04:40:41;4.23;;;1.80;;
13061;SDS011;6597;52.218;9.882;2024-02-16T04:43:07;9.87;;;2.37;;
13061;SDS011;6597;52.218;9.882;2024-02-16T04:45:34;10.33;;;2.20;;
13061;SDS011;6597;52.218;9.882;2024-02-16T04:48:04;9.17;;;2.23;;
13061;SDS011;6597;52.218;9.882;2024-02-16T04:50:32;11.07;;;2.20;;
13061;SDS011;6597;52.218;9.882;2024-02-16T04:52:59;8.00;;;1.93;;
13061;SDS011;6597;52.218;9.882;2024-02-16T04:55:27;10.23;;;2.37;;
13061;SDS011;6597;52.218;9.882;2024-02-16T04:57:54;9.30;;;2.03;;
13061;SDS011;6597;52.218;9.882;2024-02-16T05:00:21;11.53;;;2.40;;
13061;SDS011;6597;52.218;9.882;2024-02-16T05:02:47;10.10;;;2.30;;
13061;SDS011;6597;52.218;9.882;2024-02-16T05:05:14;7.97;;;1.90;;
13061;SDS011;6597;52.218;9.882;2024-02-16T05:07:41;11.30;;;2.37;;
13061;SDS011;6597;52.218;9.882;2024-02-16T05:10:09;10.77;;;2.20;;
13061;SDS011;6597;52.218;9.882;2024-02-16T05:12:36;10.70;;;2.20;;
13061;SDS011;6597;52.218;9.882;2024-02-16T05:15:04;9.13;;;2.10;;
13061;SDS011;6597;52.218;9.882;2024-02-16T05:17:32;9.07;;;2.10;;
13061;SDS011;6597;52.218;9.882;2024-02-16T05:19:58;10.90;;;2.30;;
13061;SDS011;6597;52.218;9.882;2024-02-16T05:22:25;9.67;;;2.37;;
13061;SDS011;6597;52.218;9.882;2024-02-16T05:24:51;8.70;;;2.10;;
13061;SDS011;6597;52.218;9.882;2024-02-16T05:27:18;4.87;;;1.57;;
13061;SDS011;6597;52.218;9.882;2024-02-16T05:29:44;17.97;;;3.23;;
13061;SDS011;6597;52.218;9.882;2024-02-16T05:32:12;7.97;;;2.23;;
13061;SDS011;6597;52.218;9.882;2024-02-16T05:34:39;6.50;;;1.80;;
13061;SDS011;6597;52.218;9.882;2024-02-16T05:37:06;7.00;;;2.17;;
13061;SDS011;6597;52.218;9.882;2024-02-16T05:39:35;7.53;;;2.47;;
13061;SDS011;6597;52.218;9.882;2024-02-16T05:42:18;7.33;;;1.83;;
13061;SDS011;6597;52.218;9.882;2024-02-16T05:44:46;7.20;;;2.70;;
13061;SDS011;6597;52.218;9.882;2024-02-16T05:47:14;9.33;;;3.70;;
13061;SDS011;6597;52.218;9.882;2024-02-16T05:49:41;8.93;;;2.33;;
13061;SDS011;6597;52.218;9.882;2024-02-16T05:52:07;6.57;;;2.10;;
13061;SDS011;6597;52.218;9.882;2024-02-16T05:54:43;7.83;;;2.40;;
13061;SDS011;6597;52.218;9.882;2024-02-16T05:57:10;6.33;;;2.00;;
13061;SDS011;6597;52.218;9.882;2024-02-16T05:59:37;6.83;;;1.93;;
13061;SDS011;6597;52.218;9.882;2024-02-16T06:02:04;10.07;;;2.40;;
13061;SDS011;6597;52.218;9.882;2024-02-16T06:04:33;5.73;;;2.03;;
13061;SDS011;6597;52.218;9.882;2024-02-16T06:06:59;8.83;;;2.70;;
13061;SDS011;6597;52.218;9.882;2024-02-16T06:09:26;8.50;;;2.37;;
13061;SDS011;6597;52.218;9.882;2024-02-16T06:11:59;8.60;;;2.40;;
13061;SDS011;6597;52.218;9.882;2024-02-16T06:14:28;10.23;;;2.70;;
13061;SDS011;6597;52.218;9.882;2024-02-16T06:16:55;7.47;;;2.10;;
13061;SDS011;6597;52.218;9.882;2024-02-16T06:19:21;9.83;;;2.17;;
13061;SDS011;6597;52.218;9.882;2024-02-16T06:21:49;10.63;;;2.70;;
13061;SDS011;6597;52.218;9.882;2024-02-16T06:24:16;10.87;;;2.57;;
13061;SDS011;6597;52.218;9.882;2024-02-16T06:26:44;4.50;;;2.00;;
13061;SDS011;6597;52.218;9.882;2024-02-16T06:29:10;9.40;;;2.30;;
13061;SDS011;6597;52.218;9.882;2024-02-16T06:31:37;7.47;;;2.10;;
13061;SDS011;6597;52.218;9.882;2024-02-16T06:34:03;13.83;;;3.40;;
13061;SDS011;6597;52.218;9.882;2024-02-16T06:36:30;10.33;;;2.40;;
13061;SDS011;6597;52.218;9.882;2024-02-16T06:38:58;8.90;;;2.30;;
13061;SDS011;6597;52.218;9.882;2024-02-16T06:41:25;8.17;;;2.63;;
13061;SDS011;6597;52.218;9.882;2024-02-16T06:43:52;11.50;;;2.97;;
13061;SDS011;6597;52.218;9.882;2024-02-16T06:46:18;8.10;;;2.10;;
13061;SDS011;6597;52.218;9.882;2024-02-16T06:48:45;7.97;;;2.17;;
13061;SDS011;6597;52.218;9.882;2024-02-16T06:51:11;6.97;;;2.20;;
13061;SDS011;6597;52.218;9.882;2024-02-16T06:53:38;9.60;;;2.43;;
13061;SDS011;6597;52.218;9.882;2024-02-16T06:56:06;6.50;;;1.97;;
13061;SDS011;6597;52.218;9.882;2024-02-16T06:58:33;6.80;;;2.07;;
13061;SDS011;6597;52.218;9.882;2024-02-16T07:01:01;6.30;;;1.97;;
13061;SDS011;6597;52.218;9.882;2024-02-16T07:03:28;5.87;;;1.70;;
13061;SDS011;6597;52.218;9.882;2024-02-16T07:05:55;8.00;;;2.20;;
13061;SDS011;6597;52.218;9.882;2024-02-16T07:08:22;9.83;;;2.37;;
13061;SDS011;6597;52.218;9.882;2024-02-16T07:10:49;4.50;;;1.90;;
13061;SDS011;6597;52.218;9.882;2024-02-16T07:13:18;7.10;;;1.90;;
13061;SDS011;6597;52.218;9.882;2024-02-16T07:15:44;6.80;;;2.00;;
13061;SDS011;6597;52.218;9.882;2024-02-16T07:18:11;10.80;;;2.50;;
13061;SDS011;6597;52.218;9.882;2024-02-16T07:20:39;6.67;;;2.20;;
13061;SDS011;6597;52.218;9.882;2024-02-16T07:23:06;6.93;;;2.10;;
13061;SDS011;6597;52.218;9.882;2024-02-16T07:25:34;7.73;;;2.23;;
13061;SDS011;6597;52.218;9.882;2024-02-16T07:28:01;6.63;;;2.43;;
13061;SDS011;6597;52.218;9.882;2024-02-16T07:30:29;15.27;;;8.10;;
13061;SDS011;6597;52.218;9.882;2024-02-16T07:32:55;22.80;;;9.57;;
13061;SDS011;6597;52.218;9.882;2024-02-16T07:35:22;12.37;;;5.07;;
13061;SDS011;6597;52.218;9.882;2024-02-16T07:37:49;13.53;;;5.00;;
13061;SDS011;6597;52.218;9.882;2024-02-16T07:40:17;9.20;;;3.83;;
13061;SDS011;6597;52.218;9.882;2024-02-16T07:42:43;9.30;;;3.10;;
13061;SDS011;6597;52.218;9.882;2024-02-16T07:45:10;8.43;;;2.53;;
13061;SDS011;6597;52.218;9.882;2024-02-16T07:47:40;9.13;;;2.80;;
13061;SDS011;6597;52.218;9.882;2024-02-16T07:50:07;8.47;;;2.47;;
13061;SDS011;6597;52.218;9.882;2024-02-16T07:52:34;8.93;;;2.27;;
13061;SDS011;6597;52.218;9.882;2024-02-16T07:55:00;12.30;;;2.70;;
13061;SDS011;6597;52.218;9.882;2024-02-16T07:57:27;11.30;;;2.53;;
13061;SDS011;6597;52.218;9.882;2024-02-16T07:59:53;9.90;;;2.73;;
13061;SDS011;6597;52.218;9.882;2024-02-16T08:02:20;9.13;;;2.20;;
13061;SDS011;6597;52.218;9.882;2024-02-16T08:04:48;11.83;;;2.97;;
13061;SDS011;6597;52.218;9.882;2024-02-16T08:07:14;7.83;;;2.30;;
13061;SDS011;6597;52.218;9.882;2024-02-16T08:09:43;7.97;;;2.37;;
13061;SDS011;6597;52.218;9.882;2024-02-16T08:12:10;14.10;;;3.27;;
13061;SDS011;6597;52.218;9.882;2024-02-16T08:14:37;7.80;;;2.30;;
13061;SDS011;6597;52.218;9.882;2024-02-16T08:17:04;11.83;;;2.37;;
13061;SDS011;6597;52.218;9.882;2024-02-16T08:19:31;7.93;;;2.00;;
13061;SDS011;6597;52.218;9.882;2024-02-16T08:22:00;18.93;;;4.37;;
13061;SDS011;6597;52.218;9.882;2024-02-16T08:24:27;7.60;;;2.07;;
13061;SDS011;6597;52.218;9.882;2024-02-16T08:26:53;8.90;;;2.57;;
13061;SDS011;6597;52.218;9.882;2024-02-16T08:29:21;9.80;;;2.37;;
13061;SDS011;6597;52.218;9.882;2024-02-16T08:31:48;7.00;;;2.23;;
13061;SDS011;6597;52.218;9.882;2024-02-16T08:34:15;9.83;;;2.63;;
13061;SDS011;6597;52.218;9.882;2024-02-16T08:36:43;11.17;;;3.03;;
13061;SDS011;6597;52.218;9.882;2024-02-16T08:39:11;14.03;;;2.93;;
13061;SDS011;6597;52.218;9.882;2024-02-16T08:41:38;8.63;;;2.47;;
13061;SDS011;6597;52.218;9.882;2024-02-16T08:44:05;11.67;;;3.27;;
13061;SDS011;6597;52.218;9.882;2024-02-16T08:46:34;11.47;;;2.80;;
13061;SDS011;6597;52.218;9.882;2024-02-16T08:49:01;12.47;;;2.77;;
13061;SDS011;6597;52.218;9.882;2024-02-16T08:51:28;13.10;;;2.90;;
13061;SDS011;6597;52.218;9.882;2024-02-16T08:53:54;11.97;;;3.23;;
13061;SDS011;6597;52.218;9.882;2024-02-16T08:56:22;12.10;;;2.40;;
13061;SDS011;6597;52.218;9.882;2024-02-16T08:58:49;10.17;;;2.50;;
13061;SDS011;6597;52.218;9.882;2024-02-16T09:01:16;30.10;;;7.23;;
13061;SDS011;6597;52.218;9.882;2024-02-16T09:03:43;9.13;;;2.37;;
13061;SDS011;6597;52.218;9.882;2024-02-16T09:06:10;12.57;;;2.50;;
13061;SDS011;6597;52.218;9.882;2024-02-16T09:08:38;12.97;;;2.93;;
13061;SDS011;6597;52.218;9.882;2024-02-16T09:11:04;6.60;;;2.40;;
13061;SDS011;6597;52.218;9.882;2024-02-16T09:13:33;10.63;;;2.60;;
13061;SDS011;6597;52.218;9.882;2024-02-16T09:16:00;9.63;;;2.67;;
13061;SDS011;6597;52.218;9.882;2024-02-16T09:18:28;9.67;;;2.20;;
13061;SDS011;6597;52.218;9.882;2024-02-16T09:20:55;5.17;;;1.93;;
13061;SDS011;6597;52.218;9.882;2024-02-16T09:23:21;12.00;;;2.47;;
13061;SDS011;6597;52.218;9.882;2024-02-16T09:25:48;7.17;;;2.10;;
13061;SDS011;6597;52.218;9.882;2024-02-16T09:28:16;19.57;;;3.23;;
13061;SDS011;6597;52.218;9.882;2024-02-16T09:30:45;19.83;;;3.40;;
13061;SDS011;6597;52.218;9.882;2024-02-16T09:33:12;13.30;;;2.63;;
13061;SDS011;6597;52.218;9.882;2024-02-16T09:35:39;17.53;;;3.37;;
13061;SDS011;6597;52.218;9.882;2024-02-16T09:38:05;12.27;;;2.53;;
13061;SDS011;6597;52.218;9.882;2024-02-16T09:40:33;17.83;;;3.30;;
13061;SDS011;6597;52.218;9.882;2024-02-16T09:43:00;18.93;;;3.43;;
13061;SDS011;6597;52.218;9.882;2024-02-16T09:45:27;9.43;;;2.40;;
13061;SDS011;6597;52.218;9.882;2024-02-16T09:47:56;12.98;;;2.72;;
13061;SDS011;6597;52.218;9.882;2024-02-16T09:50:24;5.73;;;2.10;;
13061;SDS011;6597;52.218;9.882;2024-02-16T09:52:52;9.83;;;2.67;;
13061;SDS011;6597;52.218;9.882;2024-02-16T09:55:20;13.07;;;2.67;;
13061;SDS011;6597;52.218;9.882;2024-02-16T09:57:47;10.63;;;2.30;;
13061;SDS011;6597;52.218;9.882;2024-02-16T10:00:24;17.77;;;2.60;;
13061;SDS011;6597;52.218;9.882;2024-02-16T10:02:50;13.63;;;2.67;;
13061;SDS011;6597;52.218;9.882;2024-02-16T10:05:19;10.27;;;2.47;;
13061;SDS011;6597;52.218;9.882;2024-02-16T10:07:47;7.37;;;2.00;;
13061;SDS011;6597;52.218;9.882;2024-02-16T10:10:20;16.57;;;3.40;;
13061;SDS011;6597;52.218;9.882;2024-02-16T10:12:46;9.23;;;2.33;;
13061;SDS011;6597;52.218;9.882;2024-02-16T10:15:18;7.88;;;2.30;;
13061;SDS011;6597;52.218;9.882;2024-02-16T10:17:45;11.10;;;2.50;;
13061;SDS011;6597;52.218;9.882;2024-02-16T10:20:18;11.65;;;2.63;;
13061;SDS011;6597;52.218;9.882;2024-02-16T10:22:45;13.25;;;2.70;;
13061;SDS011;6597;52.218;9.882;2024-02-16T10:25:12;12.23;;;2.70;;
13061;SDS011;6597;52.218;9.882;2024-02-16T10:27:39;10.53;;;2.73;;
13061;SDS011;6597;52.218;9.882;2024-02-16T10:30:07;14.63;;;3.55;;
13061;SDS011;6597;52.218;9.882;2024-02-16T10:32:36;14.75;;;3.25;;
13061;SDS011;6597;52.218;9.882;2024-02-16T10:35:06;12.60;;;2.60;;
13061;SDS011;6597;52.218;9.882;2024-02-16T10:37:36;14.13;;;2.97;;
13061;SDS011;6597;52.218;9.882;2024-02-16T10:40:03;13.47;;;2.63;;
13061;SDS011;6597;52.218;9.882;2024-02-16T10:42:30;10.05;;;2.35;;
13061;SDS011;6597;52.218;9.882;2024-02-16T10:45:02;11.77;;;2.78;;
13061;SDS011;6597;52.218;9.882;2024-02-16T10:47:30;10.45;;;2.53;;
13061;SDS011;6597;52.218;9.882;2024-02-16T10:49:57;15.63;;;2.97;;
13061;SDS011;6597;52.218;9.882;2024-02-16T10:52:23;9.27;;;2.47;;
13061;SDS011;6597;52.218;9.882;2024-02-16T10:54:52;14.43;;;2.85;;
13061;SDS011;6597;52.218;9.882;2024-02-16T10:57:20;19.23;;;3.35;;
13061;SDS011;6597;52.218;9.882;2024-02-16T10:59:52;15.43;;;3.00;;
13061;SDS011;6597;52.218;9.882;2024-02-16T11:02:20;15.25;;;2.97;;
13061;SDS011;6597;52.218;9.882;2024-02-16T11:04:47;18.67;;;3.30;;
13061;SDS011;6597;52.218;9.882;2024-02-16T11:07:15;18.33;;;3.38;;
13061;SDS011;6597;52.218;9.882;2024-02-16T11:09:43;13.73;;;2.88;;
13061;SDS011;6597;52.218;9.882;2024-02-16T11:12:12;19.55;;;3.75;;
13061;SDS011;6597;52.218;9.882;2024-02-16T11:14:40;11.90;;;2.83;;
13061;SDS011;6597;52.218;9.882;2024-02-16T11:17:08;20.20;;;3.27;;
13061;SDS011;6597;52.218;9.882;2024-02-16T11:19:35;17.95;;;3.15;;
13061;SDS011;6597;52.218;9.882;2024-02-16T11:22:03;9.55;;;2.40;;
13061;SDS011;6597;52.218;9.882;2024-02-16T11:24:32;13.07;;;2.50;;
13061;SDS011;6597;52.218;9.882;2024-02-16T11:27:02;14.00;;;3.17;;
13061;SDS011;6597;52.218;9.882;2024-02-16T11:32:02;19.83;;;3.05;;
13061;SDS011;6597;52.218;9.882;2024-02-16T11:34:30;18.88;;;3.20;;
13061;SDS011;6597;52.218;9.882;2024-02-16T11:36:57;10.85;;;2.63;;
13061;SDS011;6597;52.218;9.882;2024-02-16T11:39:24;24.23;;;4.10;;
13061;SDS011;6597;52.218;9.882;2024-02-16T11:42:01;27.42;;;4.60;;
13061;SDS011;6597;52.218;9.882;2024-02-16T11:44:29;22.58;;;4.40;;
13061;SDS011;6597;52.218;9.882;2024-02-16T11:46:57;19.88;;;3.95;;
13061;SDS011;6597;52.218;9.882;2024-02-16T11:49:25;25.38;;;3.65;;
13061;SDS011;6597;52.218;9.882;2024-02-16T11:51:52;23.13;;;3.65;;
13061;SDS011;6597;52.218;9.882;2024-02-16T11:54:19;17.77;;;3.08;;
13061;SDS011;6597;52.218;9.882;2024-02-16T11:56:46;20.13;;;3.20;;
13061;SDS011;6597;52.218;9.882;2024-02-16T11:59:16;11.82;;;2.67;;
13061;SDS011;6597;52.218;9.882;2024-02-16T12:01:52;9.43;;;2.53;;
13061;SDS011;6597;52.218;9.882;2024-02-16T12:04:25;19.20;;;3.15;;
13061;SDS011;6597;52.218;9.882;2024-02-16T12:06:52;16.67;;;3.05;;
13061;SDS011;6597;52.218;9.882;2024-02-16T12:09:19;15.27;;;3.15;;
13061;SDS011;6597;52.218;9.882;2024-02-16T12:11:47;12.60;;;3.03;;
13061;SDS011;6597;52.218;9.882;2024-02-16T12:14:14;14.45;;;3.05;;
13061;SDS011;6597;52.218;9.882;2024-02-16T12:16:41;12.57;;;2.90;;
13061;SDS011;6597;52.218;9.882;2024-02-16T12:19:07;12.95;;;3.20;;
13061;SDS011;6597;52.218;9.882;2024-02-16T12:21:37;21.60;;;3.80;;
13061;SDS011;6597;52.218;9.882;2024-02-16T12:24:04;25.17;;;4.10;;
13061;SDS011;6597;52.218;9.882;2024-02-16T12:26:31;11.02;;;2.50;;
13061;SDS011;6597;52.218;9.882;2024-02-16T12:28:57;17.05;;;3.28;;
13061;SDS011;6597;52.218;9.882;2024-02-16T12:31:24;23.40;;;4.43;;
13061;SDS011;6597;52.218;9.882;2024-02-16T12:33:51;20.27;;;3.58;;
13061;SDS011;6597;52.218;9.882;2024-02-16T12:36:18;16.25;;;2.97;;
13061;SDS011;6597;52.218;9.882;2024-02-16T12:38:46;14.05;;;3.03;;
13061;SDS011;6597;52.218;9.882;2024-02-16T12:41:13;23.45;;;3.60;;
13061;SDS011;6597;52.218;9.882;2024-02-16T12:43:39;19.95;;;3.70;;
13061;SDS011;6597;52.218;9.882;2024-02-16T12:46:06;16.33;;;2.70;;
13061;SDS011;6597;52.218;9.882;2024-02-16T12:48:32;17.80;;;3.55;;
13061;SDS011;6597;52.218;9.882;2024-02-16T12:50:59;17.27;;;2.95;;
13061;SDS011;6597;52.218;9.882;2024-02-16T12:53:25;20.75;;;3.75;;
13061;SDS011;6597;52.218;9.882;2024-02-16T12:55:56;10.07;;;2.80;;
13061;SDS011;6597;52.218;9.882;2024-02-16T12:58:22;16.30;;;3.15;;
13061;SDS011;6597;52.218;9.882;2024-02-16T13:00:49;14.85;;;3.28;;
13061;SDS011;6597;52.218;9.882;2024-02-16T13:03:15;12.32;;;2.95;;
13061;SDS011;6597;52.218;9.882;2024-02-16T13:05:42;14.18;;;3.15;;
13061;SDS011;6597;52.218;9.882;2024-02-16T13:08:09;16.02;;;3.15;;
13061;SDS011;6597;52.218;9.882;2024-02-16T13:10:35;16.33;;;3.28;;
13061;SDS011;6597;52.218;9.882;2024-02-16T13:13:03;12.20;;;3.10;;
13061;SDS011;6597;52.218;9.882;2024-02-16T13:15:30;21.23;;;3.97;;
13061;SDS011;6597;52.218;9.882;2024-02-16T13:17:57;14.45;;;3.08;;
13061;SDS011;6597;52.218;9.882;2024-02-16T13:20:24;18.58;;;3.70;;
13061;SDS011;6597;52.218;9.882;2024-02-16T13:22:50;15.75;;;3.50;;
13061;SDS011;6597;52.218;9.882;2024-02-16T13:25:17;8.55;;;2.70;;
13061;SDS011;6597;52.218;9.882;2024-02-16T13:27:45;13.23;;;3.40;;
13061;SDS011;6597;52.218;9.882;2024-02-16T13:30:13;13.73;;;3.13;;
13061;SDS011;6597;52.218;9.882;2024-02-16T13:32:40;16.40;;;3.72;;
13061;SDS011;6597;52.218;9.882;2024-02-16T13:35:07;10.98;;;3.10;;
13061;SDS011;6597;52.218;9.882;2024-02-16T13:37:34;19.02;;;4.13;;
13061;SDS011;6597;52.218;9.882;2024-02-16T13:40:00;12.88;;;3.08;;
13061;SDS011;6597;52.218;9.882;2024-02-16T13:42:29;15.52;;;3.55;;
13061;SDS011;6597;52.218;9.882;2024-02-16T13:44:57;16.83;;;3.53;;
13061;SDS011;6597;52.218;9.882;2024-02-16T13:47:25;18.13;;;3.78;;
13061;SDS011;6597;52.218;9.882;2024-02-16T13:49:52;14.80;;;3.72;;
13061;SDS011;6597;52.218;9.882;2024-02-16T13:52:19;13.90;;;3.53;;
13061;SDS011;6597;52.218;9.882;2024-02-16T13:54:46;19.73;;;4.05;;
13061;SDS011;6597;52.218;9.882;2024-02-16T13:57:12;22.02;;;4.00;;
13061;SDS011;6597;52.218;9.882;2024-02-16T13:59:39;21.27;;;4.20;;
13061;SDS011;6597;52.218;9.882;2024-02-16T14:02:06;19.43;;;4.10;;
13061;SDS011;6597;52.218;9.882;2024-02-16T14:04:34;18.57;;;3.77;;
13061;SDS011;6597;52.218;9.882;2024-02-16T14:07:02;22.77;;;4.00;;
13061;SDS011;6597;52.218;9.882;2024-02-16T14:09:29;18.97;;;3.90;;
13061;SDS011;6597;52.218;9.882;2024-02-16T14:11:55;17.10;;;4.22;;
13061;SDS011;6597;52.218;9.882;2024-02-16T14:14:24;21.02;;;4.70;;
13061;SDS011;6597;52.218;9.882;2024-02-16T14:16:50;25.15;;;5.03;;
13061;SDS011;6597;52.218;9.882;2024-02-16T14:19:17;12.20;;;3.10;;
13061;SDS011;6597;52.218;9.882;2024-02-16T14:21:45;16.10;;;3.75;;
13061;SDS011;6597;52.218;9.882;2024-02-16T14:24:12;23.52;;;3.88;;
13061;SDS011;6597;52.218;9.882;2024-02-16T14:26:39;21.52;;;4.07;;
13061;SDS011;6597;52.218;9.882;2024-02-16T14:29:07;18.63;;;4.00;;
13061;SDS011;6597;52.218;9.882;2024-02-16T14:31:35;25.20;;;5.30;;
13061;SDS011;6597;52.218;9.882;2024-02-16T14:34:02;24.10;;;5.53;;
13061;SDS011;6597;52.218;9.882;2024-02-16T14:36:29;16.40;;;3.90;;
13061;SDS011;6597;52.218;9.882;2024-02-16T14:38:56;19.63;;;4.30;;
13061;SDS011;6597;52.218;9.882;2024-02-16T14:41:23;17.67;;;4.20;;
13061;SDS011;6597;52.218;9.882;2024-02-16T14:43:49;19.02;;;3.70;;
13061;SDS011;6597;52.218;9.882;2024-02-16T14:46:16;16.30;;;4.00;;
13061;SDS011;6597;52.218;9.882;2024-02-16T14:48:42;13.48;;;3.85;;
13061;SDS011;6597;52.218;9.882;2024-02-16T14:51:10;24.08;;;5.03;;
13061;SDS011;6597;52.218;9.882;2024-02-16T14:53:36;24.58;;;5.15;;
13061;SDS011;6597;52.218;9.882;2024-02-16T14:56:05;13.25;;;3.45;;